Time;durP1;ratioP1;P1;durP2;ratioP2;P2;SDS_P1;SDS_P2;PMS_P1;PMS_P2;Temp;Humidity;BMP_temperature;BMP_pressure;BME280_temperature;BME280_humidity;BME280_pressure;Samples;Min_cycle;Max_cycle;Signal;HPM_P1;HPM_P2
2021/03/20 00:00:47;;;;;;;14.93;8.93;;;2.60;99.90;;;;;;5038061;28;20294;-87
2021/03/20 00:03:14;;;;;;;13.30;8.45;;;2.40;99.90;;;;;;5036813;28;20532;-88
2021/03/20 00:05:41;;;;;;;12.85;7.40;;;2.30;99.90;;;;;;5037533;28;20290;-87
2021/03/20 00:08:09;;;;;;;12.68;7.40;;;2.40;99.90;;;;;;5039463;28;20338;-87
2021/03/20 00:10:37;;;;;;;13.73;8.70;;;2.50;99.90;;;;;;5038474;28;20664;-87
2021/03/20 00:13:04;;;;;;;13.07;8.15;;;2.20;99.90;;;;;;5037130;28;20301;-87
2021/03/20 00:15:31;;;;;;;10.73;6.88;;;2.50;99.90;;;;;;5036166;28;20240;-87
2021/03/20 00:17:57;;;;;;;11.88;7.82;;;2.10;99.90;;;;;;5036446;28;20714;-87
2021/03/20 00:20:26;;;;;;;14.23;7.95;;;2.40;99.90;;;;;;5037283;28;20294;-86
2021/03/20 00:22:53;;;;;;;12.18;7.65;;;2.10;99.90;;;;;;5037016;28;20216;-87
2021/03/20 00:25:20;;;;;;;12.05;6.82;;;2.00;99.90;;;;;;5038529;28;20223;-87
2021/03/20 00:27:47;;;;;;;14.10;8.02;;;2.20;99.90;;;;;;5037404;28;20302;-88
2021/03/20 00:30:14;;;;;;;13.85;7.60;;;2.10;99.90;;;;;;5036353;28;20725;-88
2021/03/20 00:32:41;;;;;;;9.98;7.00;;;2.20;99.90;;;;;;5036646;28;20659;-87
2021/03/20 00:35:10;;;;;;;10.38;7.28;;;2.20;99.90;;;;;;5035938;28;20247;-87
2021/03/20 00:37:36;;;;;;;12.05;7.90;;;2.20;99.90;;;;;;5036491;28;20261;-87
2021/03/20 00:40:04;;;;;;;11.60;7.63;;;2.10;99.90;;;;;;5037031;28;20199;-88
2021/03/20 00:42:31;;;;;;;12.10;8.23;;;2.20;99.90;;;;;;5037051;28;20234;-88
2021/03/20 00:44:58;;;;;;;15.48;8.60;;;2.40;99.90;;;;;;5034851;28;20234;-87
2021/03/20 00:47:24;;;;;;;14.68;10.18;;;2.10;99.90;;;;;;5038458;28;20234;-87
2021/03/20 00:49:51;;;;;;;14.63;8.65;;;2.20;99.90;;;;;;5037578;28;20227;-87
2021/03/20 00:52:17;;;;;;;12.90;8.30;;;2.10;99.90;;;;;;5045245;28;20266;-88
2021/03/20 00:54:44;;;;;;;17.98;8.73;;;1.90;99.90;;;;;;5037133;28;20245;-87
2021/03/20 00:57:10;;;;;;;13.18;7.43;;;2.30;99.90;;;;;;5036873;28;20641;-88
2021/03/20 00:59:37;;;;;;;12.30;7.82;;;2.10;99.90;;;;;;5038148;28;20729;-88
2021/03/20 01:02:04;;;;;;;10.48;6.93;;;2.00;99.90;;;;;;5053414;28;20191;-87
2021/03/20 01:04:30;;;;;;;10.90;6.60;;;2.20;99.90;;;;;;5049135;28;20258;-87
2021/03/20 01:06:57;;;;;;;16.50;8.63;;;2.10;99.90;;;;;;5037317;28;20259;-88
2021/03/20 01:09:23;;;;;;;14.27;8.23;;;2.10;99.90;;;;;;5035254;28;20207;-88
2021/03/20 01:11:50;;;;;;;12.13;7.63;;;2.20;99.90;;;;;;5040935;28;20210;-87
2021/03/20 01:14:16;;;;;;;13.43;7.63;;;2.20;99.90;;;;;;5053887;28;20286;-86
2021/03/20 01:16:42;;;;;;;9.75;6.35;;;2.10;99.90;;;;;;5055148;28;20201;-87
2021/03/20 01:19:10;;;;;;;11.90;7.13;;;2.20;99.90;;;;;;5037527;28;20235;-87
2021/03/20 01:21:36;;;;;;;8.80;5.97;;;2.20;99.90;;;;;;5034593;28;20274;-88
2021/03/20 01:24:02;;;;;;;11.35;7.32;;;2.20;99.90;;;;;;5034492;28;20229;-88
2021/03/20 01:26:29;;;;;;;11.70;7.43;;;2.30;99.90;;;;;;5034384;28;20210;-87
2021/03/20 01:28:55;;;;;;;10.88;7.05;;;2.30;99.90;;;;;;5033420;28;20261;-86
2021/03/20 01:31:21;;;;;;;11.27;6.40;;;2.20;99.90;;;;;;5033188;28;20326;-88
2021/03/20 01:33:48;;;;;;;11.55;7.05;;;2.30;99.90;;;;;;5033065;28;20235;-86
2021/03/20 01:36:15;;;;;;;13.35;7.63;;;2.30;99.90;;;;;;5033632;28;20214;-86
2021/03/20 01:38:42;;;;;;;10.13;7.10;;;2.10;99.90;;;;;;5034429;28;20210;-87
2021/03/20 01:41:13;;;;;;;9.60;6.55;;;2.10;99.90;;;;;;5040818;28;20218;-87
2021/03/20 01:43:39;;;;;;;12.57;7.47;;;2.40;99.90;;;;;;5036523;28;20371;-86
2021/03/20 01:46:42;;;;;;;13.05;7.88;;;2.50;99.90;;;;;;5033694;28;20207;-87
2021/03/20 01:49:22;;;;;;;13.60;6.97;;;2.40;99.90;;;;;;5035352;28;20242;-86
2021/03/20 01:52:13;;;;;;;9.93;5.97;;;2.50;99.90;;;;;;5033772;28;20183;-87
2021/03/20 01:54:44;;;;;;;12.27;7.43;;;2.40;99.90;;;;;;5034241;28;20215;-87
2021/03/20 01:57:13;;;;;;;10.75;7.20;;;2.40;99.90;;;;;;5034184;28;20286;-87
2021/03/20 01:59:40;;;;;;;10.80;6.65;;;2.60;99.90;;;;;;5035404;28;20657;-87
2021/03/20 02:02:06;;;;;;;12.85;8.27;;;2.50;99.90;;;;;;5035267;28;20633;-86
2021/03/20 02:04:33;;;;;;;10.73;6.40;;;2.80;99.90;;;;;;5036630;28;20254;-86
2021/03/20 02:07:00;;;;;;;12.63;6.50;;;3.30;99.90;;;;;;5034747;28;20261;-87
2021/03/20 02:09:27;;;;;;;10.82;6.65;;;2.80;99.90;;;;;;5023138;28;20743;-85
2021/03/20 02:12:04;;;;;;;10.70;5.97;;;2.90;99.90;;;;;;5022723;28;20554;-87
2021/03/20 02:14:41;;;;;;;9.65;5.95;;;3.10;99.90;;;;;;5025470;28;20320;-86
2021/03/20 02:17:30;;;;;;;11.18;6.30;;;3.20;99.90;;;;;;5034994;28;20187;-87
2021/03/20 02:20:27;;;;;;;10.60;7.10;;;3.00;99.90;;;;;;5037118;28;20290;-86
2021/03/20 02:23:30;;;;;;;10.82;5.88;;;2.80;99.90;;;;;;5040857;28;20187;-86
2021/03/20 02:26:37;;;;;;;10.45;6.70;;;2.90;99.90;;;;;;5049010;28;20253;-86
2021/03/20 02:29:33;;;;;;;18.33;6.25;;;3.30;99.90;;;;;;5044227;28;20214;-87
2021/03/20 02:32:32;;;;;;;9.07;5.97;;;3.10;99.90;;;;;;5053006;28;20235;-86
2021/03/20 02:35:07;;;;;;;12.73;6.00;;;2.80;99.90;;;;;;5021374;28;20258;-86
2021/03/20 02:37:46;;;;;;;11.43;6.50;;;2.90;99.90;;;;;;5023135;28;20202;-88
2021/03/20 02:40:17;;;;;;;10.32;6.07;;;2.80;99.90;;;;;;5024757;28;20204;-86
2021/03/20 02:42:52;;;;;;;10.00;6.15;;;2.80;99.90;;;;;;5036553;28;20222;-86
2021/03/20 02:45:27;;;;;;;11.05;6.95;;;2.90;99.90;;;;;;5049083;28;20326;-86
2021/03/20 02:48:06;;;;;;;9.25;6.22;;;3.10;99.90;;;;;;5044797;28;20869;-86
2021/03/20 02:50:40;;;;;;;9.15;5.80;;;3.00;99.90;;;;;;5037344;28;20976;-87
2021/03/20 02:53:11;;;;;;;9.85;6.00;;;3.00;99.90;;;;;;5037516;28;20340;-86
2021/03/20 02:55:43;;;;;;;10.98;6.40;;;2.90;99.90;;;;;;5037123;28;20394;-86
2021/03/20 02:58:13;;;;;;;10.90;6.72;;;2.90;99.90;;;;;;5036795;28;20245;-87
2021/03/20 03:00:43;;;;;;;10.40;6.90;;;2.80;99.90;;;;;;5038144;28;20941;-86
2021/03/20 03:03:12;;;;;;;13.75;7.47;;;2.80;99.90;;;;;;5037205;28;20191;-85
2021/03/20 03:05:43;;;;;;;11.32;5.53;;;2.50;99.90;;;;;;5036837;28;20559;-87
2021/03/20 03:08:14;;;;;;;8.60;4.97;;;2.50;99.90;;;;;;5036968;28;20199;-86
2021/03/20 03:10:46;;;;;;;12.65;7.22;;;2.70;99.90;;;;;;5036820;28;20906;-85
2021/03/20 03:13:19;;;;;;;12.43;7.35;;;2.80;99.90;;;;;;5037425;28;20294;-86
2021/03/20 03:15:50;;;;;;;11.95;6.88;;;2.80;99.90;;;;;;5035786;28;20650;-85
2021/03/20 03:18:22;;;;;;;11.52;7.05;;;2.80;99.90;;;;;;5034692;28;20199;-86
2021/03/20 03:20:51;;;;;;;10.55;6.07;;;2.80;99.90;;;;;;5036747;28;20282;-86
2021/03/20 03:23:20;;;;;;;12.68;8.00;;;2.70;99.90;;;;;;5038065;28;20294;-86
2021/03/20 03:25:50;;;;;;;8.73;5.35;;;2.70;99.90;;;;;;5037081;28;20605;-86
2021/03/20 03:28:20;;;;;;;7.65;5.72;;;2.80;99.90;;;;;;5039995;28;20214;-85
2021/03/20 03:30:47;;;;;;;8.05;5.65;;;2.60;99.90;;;;;;5039320;28;20308;-86
2021/03/20 03:33:21;;;;;;;12.73;8.48;;;2.60;99.90;;;;;;5037277;28;20210;-86
2021/03/20 03:35:52;;;;;;;10.57;6.47;;;2.60;99.90;;;;;;5037565;28;20198;-86
2021/03/20 03:38:27;;;;;;;13.13;6.90;;;2.80;99.90;;;;;;5036658;28;20223;-87
2021/03/20 03:41:01;;;;;;;10.55;6.47;;;2.70;99.90;;;;;;5038018;28;20230;-86
2021/03/20 03:43:28;;;;;;;9.30;5.60;;;2.60;99.90;;;;;;5036486;28;20227;-86
2021/03/20 03:45:55;;;;;;;10.18;6.53;;;2.60;99.90;;;;;;5036305;28;20290;-87
2021/03/20 03:48:25;;;;;;;11.07;6.90;;;2.50;99.90;;;;;;5035945;28;20302;-86
2021/03/20 03:50:53;;;;;;;9.80;6.43;;;2.50;99.90;;;;;;5029552;28;20654;-86
2021/03/20 03:53:24;;;;;;;12.45;6.85;;;2.50;99.90;;;;;;5015341;28;20302;-86
2021/03/20 03:55:56;;;;;;;11.68;7.25;;;2.50;99.90;;;;;;5015806;28;20188;-87
2021/03/20 03:58:39;;;;;;;14.63;6.30;;;2.60;99.90;;;;;;5016225;28;20196;-87
2021/03/20 04:01:13;;;;;;;10.18;7.00;;;2.50;99.90;;;;;;5016699;28;20192;-86
2021/03/20 04:03:58;;;;;;;12.18;7.40;;;2.40;99.90;;;;;;5015469;28;20252;-87
2021/03/20 04:06:48;;;;;;;11.27;6.63;;;2.40;99.90;;;;;;5016515;28;20295;-87
2021/03/20 04:09:28;;;;;;;11.73;7.57;;;2.60;99.90;;;;;;5016020;28;20208;-86
2021/03/20 04:12:02;;;;;;;8.88;6.32;;;2.40;99.90;;;;;;5018747;28;20362;-85
2021/03/20 04:14:35;;;;;;;8.70;5.85;;;2.40;99.90;;;;;;5028848;28;20315;-87
2021/03/20 04:17:09;;;;;;;11.45;6.40;;;2.70;99.90;;;;;;5018103;28;20548;-86
2021/03/20 04:19:47;;;;;;;9.32;5.90;;;2.60;99.90;;;;;;5015269;28;20753;-87
2021/03/20 04:22:24;;;;;;;7.45;4.60;;;2.50;99.90;;;;;;5020909;28;20192;-86
2021/03/20 04:24:58;;;;;;;8.98;6.78;;;2.70;99.90;;;;;;5018587;28;20270;-87
2021/03/20 04:27:30;;;;;;;12.70;7.03;;;2.50;99.90;;;;;;5018081;28;20213;-87
2021/03/20 04:30:03;;;;;;;11.80;6.70;;;2.50;99.90;;;;;;5016590;28;20232;-87
2021/03/20 04:32:37;;;;;;;10.40;6.13;;;2.70;99.90;;;;;;5035932;28;20203;-87
2021/03/20 04:35:09;;;;;;;10.02;6.90;;;2.40;99.90;;;;;;5036839;28;20241;-87
2021/03/20 04:37:41;;;;;;;14.60;6.80;;;2.60;99.90;;;;;;5040217;28;20203;-86
2021/03/20 04:40:25;;;;;;;13.18;7.05;;;2.70;99.90;;;;;;5047424;28;20211;-86
2021/03/20 04:42:52;;;;;;;9.50;5.93;;;2.60;99.90;;;;;;5034567;28;20208;-86
2021/03/20 04:45:28;;;;;;;9.70;3.90;;;2.70;99.90;;;;;;5020802;28;20291;-88
2021/03/20 04:47:57;;;;;;;8.90;6.15;;;2.70;99.90;;;;;;5025825;28;20253;-87
2021/03/20 04:50:27;;;;;;;10.50;6.97;;;2.70;99.90;;;;;;5040532;28;20231;-88
2021/03/20 04:52:57;;;;;;;10.38;6.28;;;2.70;99.90;;;;;;5053681;28;20286;-87
2021/03/20 04:55:23;;;;;;;10.75;6.38;;;2.70;99.90;;;;;;5054304;28;20278;-85
2021/03/20 04:57:54;;;;;;;8.98;5.47;;;2.50;99.90;;;;;;5046724;28;20198;-86
2021/03/20 05:00:27;;;;;;;10.27;6.13;;;2.40;99.90;;;;;;5039888;28;20200;-85
2021/03/20 05:03:01;;;;;;;10.57;6.88;;;2.50;99.90;;;;;;5038923;28;20222;-85
2021/03/20 05:05:32;;;;;;;9.25;6.35;;;2.60;99.90;;;;;;5038767;28;20258;-85
2021/03/20 05:08:01;;;;;;;11.77;7.30;;;2.70;99.90;;;;;;5040490;28;20206;-86
2021/03/20 05:10:33;;;;;;;12.02;5.75;;;2.50;99.90;;;;;;5041239;28;20223;-87
2021/03/20 05:13:01;;;;;;;9.80;6.20;;;2.40;99.90;;;;;;5040399;28;20271;-87
2021/03/20 05:15:29;;;;;;;12.25;7.30;;;2.50;99.90;;;;;;5040255;28;20270;-87
2021/03/20 05:17:56;;;;;;;12.68;8.00;;;2.30;99.90;;;;;;5043469;28;20285;-87
2021/03/20 05:20:23;;;;;;;13.00;7.55;;;2.40;99.90;;;;;;5040581;28;20619;-87
2021/03/20 05:22:50;;;;;;;9.60;6.38;;;2.30;99.90;;;;;;5040154;28;20281;-87
2021/03/20 05:25:21;;;;;;;10.10;6.45;;;2.40;99.90;;;;;;5037037;28;20257;-87
2021/03/20 05:27:47;;;;;;;12.15;7.25;;;2.30;99.90;;;;;;5036707;28;20199;-87
2021/03/20 05:30:16;;;;;;;10.98;7.03;;;2.10;99.90;;;;;;5035805;28;20223;-87
2021/03/20 05:32:42;;;;;;;15.10;9.27;;;2.20;99.90;;;;;;5037599;28;20577;-87
2021/03/20 05:35:18;;;;;;;12.02;8.05;;;2.50;99.90;;;;;;5040358;28;20227;-87
2021/03/20 05:37:44;;;;;;;10.88;5.65;;;2.50;99.90;;;;;;5040991;28;20223;-86
2021/03/20 05:40:20;;;;;;;11.95;7.20;;;2.50;99.90;;;;;;5039301;28;20207;-87
2021/03/20 05:43:15;;;;;;;10.60;5.40;;;2.30;99.90;;;;;;5039709;28;20223;-87
2021/03/20 05:45:50;;;;;;;9.02;5.22;;;2.20;99.90;;;;;;5042676;28;20278;-87
2021/03/20 05:48:20;;;;;;;10.70;5.90;;;2.10;99.90;;;;;;5042893;28;20270;-87
2021/03/20 05:51:06;;;;;;;10.05;6.85;;;2.10;99.90;;;;;;5036987;28;20265;-86
2021/03/20 05:53:49;;;;;;;10.32;5.78;;;2.00;99.90;;;;;;5034634;28;20868;-86
2021/03/20 05:56:23;;;;;;;10.85;7.43;;;2.20;99.90;;;;;;5034335;28;20595;-86
2021/03/20 05:59:02;;;;;;;11.05;7.18;;;2.10;99.90;;;;;;5033985;28;20923;-86
2021/03/20 06:01:39;;;;;;;10.98;7.50;;;2.20;99.90;;;;;;5033737;28;20211;-86
2021/03/20 06:04:19;;;;;;;11.75;6.88;;;2.20;99.90;;;;;;5034097;28;20300;-87
2021/03/20 06:06:59;;;;;;;13.65;7.22;;;2.40;99.90;;;;;;5034840;28;20282;-86
2021/03/20 06:09:34;;;;;;;11.15;6.60;;;2.20;99.90;;;;;;5041796;28;20297;-86
2021/03/20 06:12:25;;;;;;;9.30;6.03;;;2.20;99.90;;;;;;5037112;28;20246;-86
2021/03/20 06:15:13;;;;;;;8.88;5.53;;;2.30;99.90;;;;;;5049137;28;20261;-85
2021/03/20 06:18:06;;;;;;;9.30;4.70;;;2.30;99.90;;;;;;5041797;28;20218;-86
2021/03/20 06:20:45;;;;;;;10.23;6.28;;;2.00;99.90;;;;;;5035792;28;20258;-87
2021/03/20 06:23:51;;;;;;;10.30;6.75;;;2.20;99.90;;;;;;5034984;28;20356;-86
2021/03/20 06:26:20;;;;;;;8.65;5.50;;;2.20;99.90;;;;;;5016010;28;20270;-87
2021/03/20 06:28:53;;;;;;;11.75;6.97;;;2.20;99.90;;;;;;5035736;28;20642;-86
2021/03/20 06:31:28;;;;;;;9.50;5.35;;;2.30;99.90;;;;;;5036513;28;20211;-87
2021/03/20 06:34:01;;;;;;;9.80;6.00;;;2.30;99.90;;;;;;5034860;28;20692;-87
2021/03/20 06:36:33;;;;;;;8.82;5.10;;;2.10;99.90;;;;;;5034735;28;20196;-87
2021/03/20 06:39:17;;;;;;;7.80;4.80;;;2.30;99.90;;;;;;5034839;28;20196;-87
2021/03/20 06:41:49;;;;;;;8.00;4.72;;;2.30;99.90;;;;;;5035041;28;20196;-87
2021/03/20 06:44:28;;;;;;;7.82;4.20;;;2.40;99.90;;;;;;5034483;28;20282;-87
2021/03/20 06:46:54;;;;;;;7.78;4.25;;;2.40;99.90;;;;;;5034044;28;20214;-87
2021/03/20 06:49:31;;;;;;;6.07;2.85;;;2.40;99.90;;;;;;5034905;28;20230;-85
2021/03/20 06:52:00;;;;;;;5.50;2.92;;;2.40;99.90;;;;;;5037287;28;20225;-86
2021/03/20 06:54:28;;;;;;;6.65;3.25;;;2.30;99.90;;;;;;5035565;28;20226;-87
2021/03/20 06:56:54;;;;;;;5.20;2.97;;;2.30;99.90;;;;;;5035554;28;20298;-87
2021/03/20 06:59:23;;;;;;;4.90;3.30;;;2.30;99.90;;;;;;5040946;28;20215;-86
2021/03/20 07:01:54;;;;;;;8.90;4.60;;;2.00;99.90;;;;;;5047328;28;20207;-86
2021/03/20 07:04:45;;;;;;;6.28;3.65;;;2.30;99.90;;;;;;5046560;28;20285;-86
2021/03/20 07:07:40;;;;;;;4.93;2.80;;;2.20;99.90;;;;;;5040617;28;20198;-86
2021/03/20 07:10:16;;;;;;;5.05;2.78;;;2.30;99.90;;;;;;5032015;28;20237;-85
2021/03/20 07:13:09;;;;;;;6.38;4.05;;;2.10;99.90;;;;;;5040504;28;20191;-84
2021/03/20 07:15:37;;;;;;;6.85;4.15;;;2.30;99.90;;;;;;5091827;22;20240;-81
2021/03/20 07:18:19;;;;;;;12.02;5.68;;;2.30;99.90;;;;;;5092758;28;20261;-81
2021/03/20 07:20:46;;;;;;;7.30;4.40;;;2.30;99.90;;;;;;5075259;28;20227;-81
2021/03/20 07:23:15;;;;;;;6.70;4.18;;;2.40;99.90;;;;;;5076281;28;20293;-81
2021/03/20 07:25:45;;;;;;;4.15;1.85;;;2.40;99.90;;;;;;5080917;28;20305;-80
2021/03/20 07:28:14;;;;;;;7.53;3.97;;;2.20;99.90;;;;;;5076819;28;20210;-82
2021/03/20 07:30:48;;;;;;;8.88;4.70;;;2.20;99.90;;;;;;5089989;28;20252;-82
2021/03/20 07:33:25;;;;;;;5.60;3.83;;;2.30;99.90;;;;;;5080136;28;20206;-82
2021/03/20 07:35:51;;;;;;;4.28;2.00;;;2.70;99.90;;;;;;5080994;28;20305;-83
2021/03/20 07:38:26;;;;;;;7.72;2.95;;;2.40;99.90;;;;;;5088151;28;20479;-82
2021/03/20 07:41:05;;;;;;;6.03;3.20;;;2.50;99.90;;;;;;5077842;28;20236;-83
2021/03/20 07:43:32;;;;;;;6.35;3.95;;;2.40;99.90;;;;;;5094474;28;20197;-82
2021/03/20 07:46:16;;;;;;;11.45;3.85;;;2.40;99.90;;;;;;5089144;28;20849;-81
2021/03/20 07:48:44;;;;;;;7.30;3.20;;;2.50;99.90;;;;;;5095846;28;20201;-82
2021/03/20 07:51:13;;;;;;;9.98;2.95;;;2.40;99.90;;;;;;5095517;28;20694;-81
2021/03/20 07:53:43;;;;;;;8.48;3.95;;;2.30;99.90;;;;;;5095644;28;20197;-82
2021/03/20 07:56:43;;;;;;;6.78;3.60;;;2.50;99.90;;;;;;5096109;28;20197;-82
2021/03/20 07:59:30;;;;;;;5.57;3.80;;;2.60;99.90;;;;;;5022206;28;20211;-83
2021/03/20 08:01:59;;;;;;;8.30;3.22;;;2.90;99.90;;;;;;5025960;28;20229;-82
2021/03/20 08:04:50;;;;;;;7.50;3.60;;;2.80;99.90;;;;;;5072831;28;20853;-82
2021/03/20 08:07:36;;;;;;;6.55;2.55;;;2.60;99.90;;;;;;5100181;28;20206;-83
2021/03/20 08:10:08;;;;;;;2.20;0.93;;;2.70;99.90;;;;;;5075815;28;20252;-81
2021/03/20 08:13:04;;;;;;;5.03;3.45;;;2.70;99.90;;;;;;5086042;28;20201;-82
2021/03/20 08:15:35;;;;;;;5.40;2.65;;;2.50;99.90;;;;;;5094577;28;20232;-83
2021/03/20 08:18:16;;;;;;;6.93;3.13;;;2.60;99.90;;;;;;5093478;28;20205;-82
2021/03/20 08:20:44;;;;;;;7.05;3.70;;;2.50;99.90;;;;;;5095115;28;20303;-83
2021/03/20 08:23:35;;;;;;;5.50;3.53;;;2.70;99.90;;;;;;5095273;28;20240;-82
2021/03/20 08:26:11;;;;;;;6.65;3.25;;;2.50;99.90;;;;;;5079428;28;20202;-82
2021/03/20 08:28:54;;;;;;;6.43;3.50;;;2.70;99.10;;;;;;5074921;28;20270;-82
2021/03/20 08:31:54;;;;;;;4.88;2.80;;;2.90;97.70;;;;;;5076963;28;20218;-81
2021/03/20 08:34:45;;;;;;;10.18;3.30;;;2.60;97.40;;;;;;5090714;28;20328;-81
2021/03/20 08:37:36;;;;;;;7.13;3.63;;;2.70;97.50;;;;;;5082163;28;20233;-82
2021/03/20 08:40:19;;;;;;;4.85;3.20;;;2.60;98.00;;;;;;5076958;28;20202;-82
2021/03/20 08:43:13;;;;;;;9.35;3.92;;;2.60;97.70;;;;;;5089131;28;20221;-81
2021/03/20 08:45:49;;;;;;;7.70;3.78;;;2.80;96.70;;;;;;5097468;28;20225;-77
2021/03/20 08:48:29;;;;;;;7.25;3.50;;;2.90;96.90;;;;;;5092082;28;20201;-87
2021/03/20 08:51:06;;;;;;;6.03;3.10;;;3.10;97.90;;;;;;5089276;28;20239;-79
2021/03/20 08:53:43;;;;;;;4.88;2.15;;;3.00;97.10;;;;;;5092784;28;20211;-82
2021/03/20 08:56:48;;;;;;;3.92;2.25;;;3.00;96.80;;;;;;5100345;28;20311;-83
2021/03/20 08:59:18;;;;;;;6.93;2.20;;;2.80;95.80;;;;;;5038875;28;20254;-81
2021/03/20 09:01:49;;;;;;;5.35;2.85;;;2.80;95.40;;;;;;5094129;28;20212;-79
2021/03/20 09:04:20;;;;;;;5.80;2.60;;;2.90;95.80;;;;;;5097079;28;20228;-78
2021/03/20 09:06:52;;;;;;;4.40;2.10;;;3.40;96.00;;;;;;5097664;28;20734;-82
2021/03/20 09:09:24;;;;;;;4.60;2.25;;;3.30;94.00;;;;;;5098890;28;20235;-82
2021/03/20 09:11:59;;;;;;;9.95;2.60;;;2.80;94.00;;;;;;5101376;28;20230;-80
2021/03/20 09:14:29;;;;;;;4.55;2.10;;;2.90;94.90;;;;;;5099349;28;20239;-80
2021/03/20 09:17:00;;;;;;;2.90;0.90;;;2.90;94.60;;;;;;5101910;28;20291;-81
2021/03/20 09:19:29;;;;;;;4.18;2.22;;;2.70;93.20;;;;;;5104923;28;20220;-81
2021/03/20 09:22:03;;;;;;;5.82;2.75;;;2.90;93.30;;;;;;5106184;28;20789;-81
2021/03/20 09:24:31;;;;;;;4.75;2.75;;;3.10;93.70;;;;;;5112561;28;20231;-81
2021/03/20 09:27:00;;;;;;;9.15;3.33;;;3.40;94.60;;;;;;5090866;28;20237;-81
2021/03/20 09:29:27;;;;;;;3.45;1.60;;;3.30;94.30;;;;;;5090278;28;20210;-80
2021/03/20 09:32:13;;;;;;;9.05;2.80;;;3.50;94.00;;;;;;5095770;28;20717;-82
2021/03/20 09:34:53;;;;;;;5.75;3.03;;;3.60;93.50;;;;;;5081382;28;20240;-78
2021/03/20 09:37:48;;;;;;;4.05;1.73;;;3.60;91.80;;;;;;5102191;28;20200;-80
2021/03/20 09:40:53;;;;;;;3.90;1.80;;;3.60;87.10;;;;;;5100726;28;20221;-79
2021/03/20 09:43:33;;;;;;;5.65;2.03;;;3.30;86.90;;;;;;5102222;28;20207;-79
2021/03/20 09:46:34;;;;;;;3.53;1.90;;;2.90;88.50;;;;;;5097201;28;20283;-78
2021/03/20 09:49:25;;;;;;;3.55;2.17;;;3.30;86.40;;;;;;5094395;28;20251;-78
2021/03/20 09:51:58;;;;;;;4.00;2.17;;;3.50;83.30;;;;;;5097054;28;20251;-77
2021/03/20 09:54:43;;;;;;;3.25;1.80;;;4.00;84.20;;;;;;5087879;28;20882;-79
2021/03/20 09:57:42;;;;;;;4.70;1.83;;;4.20;78.90;;;;;;5091195;28;20243;-75
2021/03/20 10:00:14;;;;;;;3.88;1.90;;;4.50;73.00;;;;;;5091456;28;20209;-76
2021/03/20 10:02:53;;;;;;;6.30;2.17;;;4.60;72.60;;;;;;5070858;28;20213;-75
2021/03/20 10:05:28;;;;;;;6.60;2.50;;;4.70;73.20;;;;;;5087844;28;20283;-77
2021/03/20 10:07:59;;;;;;;6.55;1.70;;;4.70;70.00;;;;;;5091367;28;20219;-75
2021/03/20 10:10:45;;;;;;;5.40;2.75;;;4.90;68.20;;;;;;5095200;28;20242;-76
2021/03/20 10:13:16;;;;;;;3.35;2.05;;;4.80;70.50;;;;;;5098865;28;20333;-77
2021/03/20 10:15:59;;;;;;;7.57;2.50;;;5.00;71.90;;;;;;5093879;28;20689;-76
2021/03/20 10:18:35;;;;;;;4.70;2.35;;;4.80;70.80;;;;;;5089892;28;20205;-76
2021/03/20 10:21:26;;;;;;;3.80;2.05;;;4.40;71.40;;;;;;5091724;28;20189;-76
2021/03/20 10:24:05;;;;;;;4.22;2.35;;;4.50;73.50;;;;;;5097287;28;20285;-76
2021/03/20 10:26:40;;;;;;;4.72;1.83;;;4.90;73.30;;;;;;5088201;28;20203;-78
2021/03/20 10:29:12;;;;;;;6.50;2.03;;;4.90;66.00;;;;;;5097781;28;20292;-79
2021/03/20 10:31:43;;;;;;;3.85;2.20;;;4.70;65.70;;;;;;5093448;28;20266;-75
2021/03/20 10:34:12;;;;;;;4.88;2.30;;;4.30;65.30;;;;;;5092857;28;20228;-76
2021/03/20 10:36:41;;;;;;;3.00;1.40;;;4.30;66.60;;;;;;5091536;28;20233;-77
2021/03/20 10:39:27;;;;;;;4.97;2.40;;;4.10;67.60;;;;;;5083842;28;20552;-74
2021/03/20 10:41:59;;;;;;;5.57;2.17;;;4.50;68.90;;;;;;5072993;28;20580;-74
2021/03/20 10:44:30;;;;;;;3.38;1.80;;;4.60;69.00;;;;;;5092372;28;20227;-74
2021/03/20 10:47:08;;;;;;;5.68;2.40;;;4.70;67.90;;;;;;5096711;28;20295;-77
2021/03/20 10:49:40;;;;;;;3.20;1.80;;;4.70;65.70;;;;;;5097718;28;20235;-75
2021/03/20 10:52:16;;;;;;;4.22;2.13;;;4.40;63.70;;;;;;5093635;28;20282;-75
2021/03/20 10:54:46;;;;;;;3.80;1.80;;;4.70;65.30;;;;;;5096162;28;20321;-75
2021/03/20 10:57:18;;;;;;;4.00;1.98;;;4.60;62.40;;;;;;5094734;28;20205;-74
2021/03/20 10:59:47;;;;;;;4.95;2.20;;;4.40;62.80;;;;;;5084106;28;20738;-74
2021/03/20 11:02:31;;;;;;;5.15;2.28;;;4.50;64.20;;;;;;5085964;28;20572;-74
2021/03/20 11:05:15;;;;;;;7.15;2.42;;;4.50;64.80;;;;;;5097010;28;20240;-78
2021/03/20 11:07:49;;;;;;;3.22;1.83;;;4.60;66.20;;;;;;5095075;28;20307;-75
2021/03/20 11:10:23;;;;;;;7.80;2.78;;;4.40;66.30;;;;;;5096352;28;20208;-78
2021/03/20 11:12:50;;;;;;;6.10;2.38;;;4.60;68.00;;;;;;5094611;28;20318;-77
2021/03/20 11:15:25;;;;;;;5.60;2.95;;;4.80;68.40;;;;;;5094363;28;20235;-77
2021/03/20 11:17:57;;;;;;;3.70;2.00;;;4.50;67.60;;;;;;5094805;28;20231;-76
2021/03/20 11:20:32;;;;;;;6.05;2.90;;;4.90;68.00;;;;;;5096030;28;20292;-73
2021/03/20 11:22:58;;;;;;;5.35;2.83;;;5.00;68.00;;;;;;5092712;28;20291;-74
2021/03/20 11:25:33;;;;;;;2.75;1.13;;;4.60;66.60;;;;;;5088787;28;20213;-77
2021/03/20 11:28:03;;;;;;;4.75;2.60;;;4.70;66.30;;;;;;5089684;28;20215;-80
2021/03/20 11:30:36;;;;;;;5.25;2.50;;;4.70;66.80;;;;;;5094085;28;20281;-75
2021/03/20 11:33:04;;;;;;;4.00;1.55;;;4.30;66.50;;;;;;5091245;28;20205;-76
2021/03/20 11:35:34;;;;;;;6.63;2.85;;;4.20;67.60;;;;;;5094406;28;20217;-75
2021/03/20 11:38:03;;;;;;;3.67;2.10;;;4.50;68.40;;;;;;5095326;28;20364;-76
2021/03/20 11:40:33;;;;;;;4.72;2.50;;;4.40;68.70;;;;;;5096442;28;20754;-77
2021/03/20 11:43:03;;;;;;;3.15;1.83;;;4.40;68.10;;;;;;5096410;28;20206;-76
2021/03/20 11:45:32;;;;;;;4.80;2.72;;;4.70;68.30;;;;;;5098575;28;20383;-78
2021/03/20 11:48:04;;;;;;;8.25;4.85;;;4.30;68.00;;;;;;5104997;28;20197;-79
2021/03/20 11:50:35;;;;;;;5.60;2.53;;;4.80;68.60;;;;;;5096698;28;20232;-79
2021/03/20 11:53:03;;;;;;;4.75;2.58;;;4.90;65.80;;;;;;5094531;28;20193;-79
2021/03/20 11:55:35;;;;;;;4.47;2.30;;;4.80;64.90;;;;;;5093777;28;20642;-78
2021/03/20 11:58:04;;;;;;;5.00;2.85;;;4.90;65.80;;;;;;5095025;28;20219;-79
2021/03/20 12:00:38;;;;;;;6.18;2.42;;;5.00;66.20;;;;;;5095879;28;20209;-77
2021/03/20 12:03:12;;;;;;;4.15;2.20;;;5.30;66.50;;;;;;5098066;28;20207;-80
2021/03/20 12:05:40;;;;;;;5.15;2.83;;;5.40;66.20;;;;;;5099903;28;20728;-79
2021/03/20 12:08:28;;;;;;;4.60;1.90;;;5.20;66.50;;;;;;5095653;28;20213;-79
2021/03/20 12:10:58;;;;;;;3.83;2.50;;;5.40;65.40;;;;;;5085075;28;20239;-76
2021/03/20 12:13:38;;;;;;;5.35;2.72;;;5.10;65.40;;;;;;5091008;28;20303;-75
2021/03/20 12:16:05;;;;;;;5.60;2.58;;;5.00;67.70;;;;;;5098376;28;20309;-76
2021/03/20 12:18:33;;;;;;;7.47;3.83;;;5.10;67.50;;;;;;5091729;28;20205;-75
2021/03/20 12:21:06;;;;;;;4.55;2.75;;;5.10;68.00;;;;;;5091451;28;20240;-77
2021/03/20 12:23:35;;;;;;;4.18;2.35;;;5.10;66.90;;;;;;5074005;28;20201;-76
2021/03/20 12:26:17;;;;;;;5.43;3.05;;;5.00;67.70;;;;;;5087452;28;20288;-77
2021/03/20 12:28:45;;;;;;;8.38;3.70;;;4.90;68.40;;;;;;5098577;28;20305;-75
2021/03/20 12:31:34;;;;;;;5.53;3.33;;;5.10;69.70;;;;;;5091506;28;20221;-76
2021/03/20 12:34:05;;;;;;;4.90;2.90;;;5.30;68.00;;;;;;5086471;28;20253;-76
2021/03/20 12:36:40;;;;;;;5.05;2.63;;;5.40;66.70;;;;;;5092630;28;20232;-75
2021/03/20 12:39:08;;;;;;;5.13;2.92;;;5.50;67.40;;;;;;5092414;28;20261;-76
2021/03/20 12:41:35;;;;;;;3.80;2.08;;;5.50;68.00;;;;;;5094325;28;20201;-75
2021/03/20 12:44:07;;;;;;;4.40;2.47;;;4.90;67.00;;;;;;5082802;28;20837;-75
2021/03/20 12:46:34;;;;;;;4.05;2.65;;;4.80;67.70;;;;;;5077243;28;20300;-76
2021/03/20 12:49:01;;;;;;;5.65;2.78;;;4.80;67.60;;;;;;5074415;28;20206;-75
2021/03/20 12:51:27;;;;;;;5.13;1.50;;;5.00;67.40;;;;;;5094136;28;20224;-75
2021/03/20 12:53:55;;;;;;;3.20;1.40;;;5.00;67.30;;;;;;5094980;28;20233;-77
2021/03/20 12:56:21;;;;;;;4.30;2.50;;;5.10;66.50;;;;;;5095300;28;20291;-77
2021/03/20 12:58:48;;;;;;;3.53;1.52;;;5.10;65.60;;;;;;5093066;28;20205;-76
2021/03/20 13:01:14;;;;;;;7.53;2.55;;;5.00;68.30;;;;;;5095624;28;20234;-76
2021/03/20 13:03:41;;;;;;;5.28;2.63;;;5.20;69.80;;;;;;5093324;28;20241;-75
2021/03/20 13:06:08;;;;;;;6.65;3.47;;;5.30;69.30;;;;;;5094396;28;20291;-77
2021/03/20 13:08:36;;;;;;;5.28;2.22;;;5.40;68.60;;;;;;5096890;28;20265;-76
2021/03/20 13:11:03;;;;;;;4.30;2.80;;;5.10;66.70;;;;;;5092261;28;20248;-77
2021/03/20 13:13:30;;;;;;;5.20;3.20;;;5.40;68.00;;;;;;5077861;28;20320;-76
2021/03/20 13:15:57;;;;;;;5.38;3.10;;;5.50;68.70;;;;;;5096103;22;20282;-78
2021/03/20 13:18:23;;;;;;;4.57;2.70;;;5.50;69.00;;;;;;5096313;28;20296;-80
2021/03/20 13:20:50;;;;;;;6.45;3.67;;;5.40;68.10;;;;;;5082960;28;20610;-79
2021/03/20 13:23:18;;;;;;;7.07;3.10;;;5.60;68.80;;;;;;5084547;28;20239;-86
2021/03/20 13:25:45;;;;;;;5.07;2.55;;;5.80;69.20;;;;;;5085840;28;20312;-87
2021/03/20 13:28:14;;;;;;;7.90;3.03;;;5.80;67.80;;;;;;5084578;28;20300;-83